Terminal Aerodrome Forecast
Issued by NWS

Home | Current Version | Previous Version | Text Only | Print | Product List | Glossary On
Versions: 1 2 3 4 5 6 7 8 9 10 11 12 13
000
FTUS46 KSTO 171700
TAFSAC
TAF
KSAC 171740Z 1718/1818 21007KT P6SM SKC
     FM172000 21012G20KT P6SM BKN200
     FM180500 20007KT P6SM SCT100 BKN200
     FM181000 17005KT P6SM VCSH SCT035 OVC060=

USA.gov is the U.S. government's official web portal to all federal, state and local government web resources and services.